createdAt,value
2022-12-05T00:01:42.590Z,405.20
2022-12-05T00:04:13.228Z,446.17
2022-12-05T00:06:43.007Z,460.60
2022-12-05T00:09:13.183Z,419.08
2022-12-05T00:11:44.005Z,456.02
2022-12-05T00:14:13.801Z,401.90
2022-12-05T00:16:44.639Z,386.73
2022-12-05T00:19:14.941Z,415.63
2022-12-05T00:21:43.847Z,454.15
2022-12-05T00:24:14.965Z,454.58
2022-12-05T00:26:43.914Z,449.40
2022-12-05T00:29:12.410Z,456.13
2022-12-05T00:31:42.496Z,432.13
2022-12-05T00:34:11.154Z,418.63
2022-12-05T00:36:40.123Z,433.63
2022-12-05T00:39:10.248Z,441.50
2022-12-05T00:41:39.097Z,465.10
2022-12-05T00:44:08.061Z,456.38
2022-12-05T00:46:37.437Z,463.08
2022-12-05T00:49:08.638Z,413.80
2022-12-05T00:51:39.168Z,435.95
2022-12-05T00:54:10.206Z,461.83
2022-12-05T00:56:39.068Z,440.20
2022-12-05T00:59:08.908Z,426.25
2022-12-05T01:01:39.702Z,478.95
2022-12-05T01:04:11.130Z,463.83
2022-12-05T01:06:39.673Z,458.48
2022-12-05T01:09:08.250Z,394.85
2022-12-05T01:11:41.263Z,467.05
2022-12-05T01:14:10.206Z,461.92
2022-12-05T01:16:40.488Z,458.75
2022-12-05T01:19:13.693Z,388.88
2022-12-05T01:21:42.470Z,408.88
2022-12-05T01:24:11.403Z,468.55
2022-12-05T01:26:40.017Z,434.63
2022-12-05T01:29:08.602Z,436.13
2022-12-05T01:31:38.387Z,449.98
2022-12-05T01:34:10.840Z,445.63
2022-12-05T01:36:39.535Z,449.70
2022-12-05T01:39:08.734Z,466.30
2022-12-05T01:41:38.812Z,397.88
2022-12-05T01:44:28.843Z,441.67
2022-12-05T01:46:57.958Z,416.25
2022-12-05T01:49:30.029Z,431.25
2022-12-05T01:52:01.977Z,433.40
2022-12-05T01:54:31.041Z,391.50
2022-12-05T01:57:02.503Z,446.40
2022-12-05T01:59:33.387Z,443.70
2022-12-05T02:02:02.510Z,414.52
2022-12-05T02:04:32.906Z,446.08
2022-12-05T02:07:01.429Z,377.42
2022-12-05T02:09:29.958Z,405.90
2022-12-05T02:12:00.962Z,446.45
2022-12-05T02:14:33.797Z,440.75
2022-12-05T02:17:08.289Z,461.65
2022-12-05T02:20:11.427Z,462.52
2022-12-05T02:23:02.404Z,380.27
2022-12-05T02:26:04.307Z,425.58
2022-12-05T02:28:50.590Z,416.10
2022-12-05T02:31:24.056Z,421.52
2022-12-05T02:33:58.080Z,449.02
2022-12-05T02:36:32.837Z,447.42
2022-12-05T02:39:06.025Z,468.13
2022-12-05T02:41:36.567Z,407.92
2022-12-05T02:44:07.029Z,433.45
2022-12-05T02:46:39.363Z,456.65
2022-12-05T02:49:10.843Z,423.73
2022-12-05T02:51:44.385Z,409.38
2022-12-05T02:54:18.072Z,428.02
2022-12-05T02:56:48.509Z,427.93
2022-12-05T02:59:22.866Z,410.42
2022-12-05T03:01:53.768Z,437.92
2022-12-05T03:04:24.854Z,435.58
2022-12-05T03:06:55.303Z,455.08
2022-12-05T03:09:27.098Z,453.48
2022-12-05T03:11:59.422Z,451.17
2022-12-05T03:14:31.959Z,470.08
2022-12-05T03:17:04.508Z,452.95
2022-12-05T03:19:38.560Z,465.48
2022-12-05T03:22:10.139Z,452.45
2022-12-05T03:24:40.332Z,439.38
2022-12-05T03:27:13.438Z,465.92
2022-12-05T03:29:48.482Z,457.05
2022-12-05T03:32:22.959Z,424.08
2022-12-05T03:34:57.647Z,465.42
2022-12-05T03:40:07.500Z,470.95
2022-12-05T03:42:39.999Z,445.42
2022-12-05T03:45:11.796Z,441.58
2022-12-05T03:47:46.564Z,463.50
2022-12-05T03:50:20.510Z,451.20
2022-12-05T03:53:18.747Z,429.77
2022-12-05T03:55:42.051Z,443.13
2022-12-05T03:58:13.933Z,443.92
2022-12-05T04:00:45.173Z,453.23
2022-12-05T04:03:19.492Z,435.40
2022-12-05T04:05:51.019Z,445.80
2022-12-05T04:08:23.298Z,417.48
2022-12-05T04:10:54.345Z,441.02
2022-12-05T04:13:25.891Z,453.10
2022-12-05T04:16:16.909Z,455.75
2022-12-05T04:18:51.335Z,481.25
2022-12-05T04:21:37.871Z,461.55
2022-12-05T04:24:24.773Z,479.25
2022-12-05T04:27:03.031Z,481.95
2022-12-05T04:29:33.379Z,448.38
2022-12-05T04:32:07.729Z,453.30
2022-12-05T04:34:39.493Z,455.67
2022-12-05T04:37:13.632Z,462.08
2022-12-05T04:39:45.983Z,450.17
2022-12-05T04:42:17.392Z,457.92
2022-12-05T04:44:49.128Z,449.02
2022-12-05T04:47:18.609Z,473.67
2022-12-05T04:49:53.556Z,483.42
2022-12-05T04:52:23.325Z,446.23
2022-12-05T04:54:54.593Z,478.40
2022-12-05T04:57:26.078Z,480.05
2022-12-05T04:59:54.773Z,488.02
2022-12-05T05:02:26.022Z,484.83
2022-12-05T05:04:57.313Z,500.52
2022-12-05T05:07:25.918Z,474.20
2022-12-05T05:09:54.324Z,461.48
2022-12-05T05:12:22.722Z,494.08
2022-12-05T05:14:51.173Z,473.88
2022-12-05T05:17:19.714Z,480.55
2022-12-05T05:19:48.389Z,473.50
2022-12-05T05:22:18.147Z,484.27
2022-12-05T05:24:46.646Z,484.70
2022-12-05T05:27:15.058Z,426.88
2022-12-05T05:29:43.511Z,476.50
2022-12-05T05:32:12.075Z,475.27
2022-12-05T05:34:40.810Z,451.23
2022-12-05T05:37:09.411Z,464.90
2022-12-05T05:39:39.468Z,470.50
2022-12-05T05:42:15.678Z,478.52
2022-12-05T05:44:44.348Z,492.02
2022-12-05T05:47:20.410Z,486.00
2022-12-05T05:49:48.909Z,463.48
2022-12-05T05:52:19.305Z,390.13
2022-12-05T05:54:49.429Z,423.10
2022-12-05T05:57:20.542Z,435.77
2022-12-05T05:59:49.115Z,451.80
2022-12-05T06:02:18.200Z,437.95
2022-12-05T06:04:47.367Z,460.25
2022-12-05T06:07:16.854Z,419.65
2022-12-05T06:09:45.379Z,409.92
2022-12-05T06:12:18.650Z,419.63
2022-12-05T06:14:48.238Z,473.45
2022-12-05T06:17:16.755Z,415.35
2022-12-05T06:19:45.472Z,461.58
2022-12-05T06:22:13.974Z,477.17
2022-12-05T06:24:42.683Z,477.80
2022-12-05T06:27:12.029Z,499.80
2022-12-05T06:29:42.095Z,555.30
2022-12-05T06:32:10.779Z,492.95
2022-12-05T06:34:39.497Z,483.05
2022-12-05T06:37:07.978Z,549.65
2022-12-05T06:39:36.521Z,482.83
2022-12-05T06:42:05.415Z,445.08
2022-12-05T06:44:34.041Z,438.40
2022-12-05T06:47:03.972Z,476.58
2022-12-05T06:49:37.809Z,460.50
2022-12-05T06:52:07.504Z,466.10
2022-12-05T06:54:36.113Z,418.63
2022-12-05T06:57:05.361Z,442.88
2022-12-05T06:59:33.888Z,498.52
2022-12-05T07:02:02.851Z,464.83
2022-12-05T07:04:31.837Z,464.45
2022-12-05T07:07:02.080Z,488.75
2022-12-05T07:09:44.684Z,489.33
2022-12-05T07:12:13.683Z,542.20
2022-12-05T07:14:48.192Z,502.17
2022-12-05T07:17:19.379Z,415.00
2022-12-05T07:19:52.759Z,459.73
2022-12-05T07:22:22.498Z,405.88
2022-12-05T07:24:53.223Z,380.17
2022-12-05T07:27:27.322Z,420.15
2022-12-05T07:29:57.363Z,395.55
2022-12-05T07:32:27.893Z,491.85
2022-12-05T07:34:56.650Z,425.83
2022-12-05T07:37:25.308Z,445.92
2022-12-05T07:39:54.188Z,430.48
2022-12-05T07:42:22.910Z,411.20
2022-12-05T07:44:51.405Z,456.80
2022-12-05T07:47:20.159Z,377.88
2022-12-05T07:49:50.163Z,402.58
2022-12-05T07:52:18.752Z,461.73
2022-12-05T07:54:47.583Z,359.02
2022-12-05T07:57:16.056Z,374.85
2022-12-05T07:59:45.068Z,328.23
2022-12-05T08:02:14.191Z,324.88
2022-12-05T08:04:42.960Z,324.55
2022-12-05T08:07:13.563Z,293.83
2022-12-05T08:09:42.043Z,325.67
2022-12-05T08:12:10.979Z,278.80
2022-12-05T08:14:39.796Z,279.70
2022-12-05T08:17:08.386Z,308.02
2022-12-05T08:19:37.171Z,492.33
2022-12-05T08:22:05.810Z,289.17
2022-12-05T08:24:35.859Z,281.63
2022-12-05T08:27:06.094Z,310.17
2022-12-05T08:29:34.845Z,338.15
2022-12-05T08:32:03.550Z,344.10
2022-12-05T08:34:32.146Z,302.25
2022-12-05T08:37:00.724Z,339.05
2022-12-05T08:39:32.564Z,275.75
2022-12-05T08:42:05.231Z,283.10
2022-12-05T08:44:33.672Z,259.35
2022-12-05T08:47:02.591Z,383.02
2022-12-05T08:49:31.219Z,285.23
2022-12-05T08:51:59.726Z,289.55
2022-12-05T08:54:28.629Z,274.42
2022-12-05T08:56:57.614Z,375.35
2022-12-05T08:59:27.875Z,261.50
2022-12-05T09:01:56.524Z,320.73
2022-12-05T09:04:25.412Z,399.85
2022-12-05T09:06:53.978Z,267.17
2022-12-05T09:09:22.510Z,268.98
2022-12-05T09:11:51.409Z,295.30
2022-12-05T09:14:20.211Z,275.73
2022-12-05T09:16:50.396Z,292.75
2022-12-05T09:19:21.669Z,282.30
2022-12-05T09:21:50.353Z,257.83
2022-12-05T09:24:18.931Z,254.35
2022-12-05T09:26:47.627Z,242.20
2022-12-05T09:29:17.870Z,245.10
2022-12-05T09:31:47.496Z,248.68
2022-12-05T09:34:18.677Z,229.30
2022-12-05T09:36:55.648Z,256.88
2022-12-05T09:39:27.094Z,242.70
2022-12-05T09:42:18.326Z,233.43
2022-12-05T09:45:11.480Z,433.20
2022-12-05T09:47:47.551Z,286.27
2022-12-05T09:50:23.639Z,251.00
2022-12-05T09:53:02.429Z,293.52
2022-12-05T09:55:43.708Z,232.00
2022-12-05T09:58:30.328Z,229.13
2022-12-05T10:01:04.320Z,231.32
2022-12-05T10:03:40.221Z,229.15
2022-12-05T10:06:15.377Z,275.20
2022-12-05T10:09:00.023Z,232.88
2022-12-05T10:11:36.243Z,226.02
2022-12-05T10:14:13.147Z,227.50
2022-12-05T10:16:47.076Z,261.17
2022-12-05T10:19:19.622Z,226.60
2022-12-05T10:21:54.997Z,272.65
2022-12-05T10:24:28.495Z,399.98
2022-12-05T10:26:59.104Z,226.18
2022-12-05T10:29:30.445Z,226.85
2022-12-05T10:32:05.911Z,398.77
2022-12-05T10:34:39.035Z,251.25
2022-12-05T10:37:13.364Z,291.00
2022-12-05T10:39:42.452Z,270.58
2022-12-05T10:42:15.132Z,277.80
2022-12-05T10:44:44.584Z,248.68
2022-12-05T10:47:13.817Z,256.63
2022-12-05T10:49:42.547Z,350.60
2022-12-05T10:52:14.316Z,181.32
2022-12-05T10:54:46.098Z,168.27
2022-12-05T10:57:23.434Z,182.93
2022-12-05T10:59:53.037Z,199.63
2022-12-05T11:02:25.510Z,195.88
2022-12-05T11:04:54.634Z,325.48
2022-12-05T11:07:31.428Z,162.40
2022-12-05T11:10:01.566Z,222.13
2022-12-05T11:12:31.274Z,218.55
2022-12-05T11:15:03.120Z,164.57
2022-12-05T11:20:02.068Z,235.07
2022-12-05T11:22:37.207Z,234.25
2022-12-05T11:25:26.587Z,237.05
2022-12-05T11:28:00.780Z,243.38
2022-12-05T11:30:30.451Z,326.50
2022-12-05T11:33:13.888Z,197.77
2022-12-05T11:35:42.563Z,214.35
2022-12-05T11:38:14.068Z,185.13
2022-12-05T11:40:49.042Z,284.08
2022-12-05T11:43:45.136Z,185.25
2022-12-05T11:46:24.971Z,179.52
2022-12-05T11:49:04.829Z,239.40
2022-12-05T11:51:41.986Z,238.15
2022-12-05T11:55:04.043Z,185.00
2022-12-05T11:57:35.734Z,202.93
2022-12-05T12:00:13.405Z,259.73
2022-12-05T12:03:13.321Z,175.52
2022-12-05T12:05:46.442Z,211.63
2022-12-05T12:08:28.174Z,195.20
2022-12-05T12:11:07.979Z,216.05
2022-12-05T12:13:49.018Z,246.05
2022-12-05T12:16:21.225Z,191.32
2022-12-05T12:19:27.109Z,220.13
2022-12-05T12:22:06.829Z,395.33
2022-12-05T12:24:46.539Z,229.70
2022-12-05T12:27:28.970Z,248.70
2022-12-05T12:30:02.806Z,255.98
2022-12-05T12:32:36.368Z,250.40
2022-12-05T12:35:23.880Z,189.10
2022-12-05T12:38:09.364Z,212.32
2022-12-05T12:40:44.610Z,289.67
2022-12-05T12:43:52.650Z,255.43
2022-12-05T12:46:22.243Z,231.27
2022-12-05T12:49:01.043Z,214.38
2022-12-05T12:51:31.443Z,233.80
2022-12-05T12:54:08.650Z,280.23
2022-12-05T12:56:48.379Z,223.88
2022-12-05T12:59:32.083Z,253.77
2022-12-05T13:02:04.385Z,243.15
2022-12-05T13:04:40.353Z,188.20
2022-12-05T13:07:13.650Z,201.68
2022-12-05T13:09:50.197Z,203.02
2022-12-05T13:12:24.393Z,320.30
2022-12-05T13:14:57.492Z,325.92
2022-12-05T13:17:26.217Z,265.13
2022-12-05T13:19:57.658Z,354.92
2022-12-05T13:22:27.677Z,267.52
2022-12-05T13:24:57.164Z,307.10
2022-12-05T13:27:27.633Z,201.73
2022-12-05T13:30:00.256Z,290.98
2022-12-05T13:32:32.204Z,275.75
2022-12-05T13:35:03.051Z,245.13
2022-12-05T13:37:50.093Z,206.02
2022-12-05T13:40:46.029Z,283.15
2022-12-05T13:43:18.097Z,241.30
2022-12-05T13:46:02.188Z,242.55
2022-12-05T13:48:34.118Z,331.75
2022-12-05T13:51:05.815Z,237.10
2022-12-05T13:53:38.654Z,299.23
2022-12-05T13:56:15.963Z,224.07
2022-12-05T13:58:47.880Z,307.73
2022-12-05T14:01:55.424Z,373.20
2022-12-05T14:04:50.131Z,225.02
2022-12-05T14:07:37.908Z,223.52
2022-12-05T14:10:07.297Z,246.82
2022-12-05T14:12:56.225Z,265.55
2022-12-05T14:15:35.666Z,315.05
2022-12-05T14:18:10.154Z,304.65
2022-12-05T14:20:50.754Z,317.95
2022-12-05T14:23:45.478Z,218.23
2022-12-05T14:26:32.466Z,243.43
2022-12-05T14:29:14.653Z,162.25
2022-12-05T14:31:52.241Z,256.52
2022-12-05T14:34:26.074Z,279.80
2022-12-05T14:36:56.655Z,310.50
2022-12-05T14:39:33.946Z,341.85
2022-12-05T14:42:04.246Z,238.65
2022-12-05T14:44:33.487Z,305.25
2022-12-05T14:47:05.688Z,345.40
2022-12-05T14:49:54.723Z,228.35
2022-12-05T14:52:28.371Z,304.63
2022-12-05T14:55:02.151Z,272.45
2022-12-05T14:57:31.106Z,154.95
2022-12-05T15:00:02.530Z,182.05
2022-12-05T15:02:33.747Z,295.58
2022-12-05T15:05:07.283Z,490.75
2022-12-05T15:07:37.862Z,304.65
2022-12-05T15:10:09.153Z,281.80
2022-12-05T15:12:42.940Z,215.40
2022-12-05T15:15:17.518Z,286.40
2022-12-05T15:20:25.668Z,153.32
2022-12-05T15:22:54.143Z,274.27
2022-12-05T15:25:28.330Z,329.67
2022-12-05T15:27:59.618Z,253.07
2022-12-05T15:30:28.936Z,299.17
2022-12-05T15:32:59.678Z,267.15
2022-12-05T15:35:32.965Z,257.08
2022-12-05T15:38:06.389Z,295.67
2022-12-05T15:40:38.014Z,198.98
2022-12-05T15:43:29.392Z,241.88
2022-12-05T15:46:17.454Z,182.82
2022-12-05T15:48:45.975Z,249.23
2022-12-05T15:51:16.328Z,267.75
2022-12-05T15:53:47.428Z,271.98
2022-12-05T15:56:18.622Z,225.43
2022-12-05T15:58:50.329Z,216.20
2022-12-05T16:01:22.898Z,340.30
2022-12-05T16:03:56.478Z,270.17
2022-12-05T16:06:31.030Z,267.98
2022-12-05T16:09:01.035Z,284.17
2022-12-05T16:11:29.937Z,280.92
2022-12-05T16:14:00.552Z,311.65
2022-12-05T16:16:33.202Z,277.27
2022-12-05T16:19:06.350Z,217.93
2022-12-05T16:21:39.133Z,208.48
2022-12-05T16:24:09.939Z,457.63
2022-12-05T16:26:40.453Z,221.70
2022-12-05T16:29:10.209Z,351.65
2022-12-05T16:31:39.031Z,287.27
2022-12-05T16:34:09.352Z,299.48
2022-12-05T16:36:48.164Z,360.23
2022-12-05T16:39:19.670Z,272.55
2022-12-05T16:41:48.884Z,308.58
2022-12-05T16:44:57.578Z,498.63
2022-12-05T16:47:27.524Z,311.75
2022-12-05T16:49:56.304Z,430.92
2022-12-05T16:52:32.492Z,312.27
2022-12-05T16:55:01.213Z,317.65
2022-12-05T16:57:29.855Z,373.08
2022-12-05T17:00:01.676Z,321.48
2022-12-05T17:02:30.451Z,320.60
2022-12-05T17:04:59.129Z,336.48
2022-12-05T17:07:33.707Z,335.25
2022-12-05T17:10:02.676Z,368.25
2022-12-05T17:12:31.376Z,353.25
2022-12-05T17:15:00.123Z,352.42
2022-12-05T17:17:28.923Z,347.63
2022-12-05T17:19:59.680Z,370.13
2022-12-05T17:22:33.283Z,353.70
2022-12-05T17:25:03.874Z,346.87
2022-12-05T17:27:35.440Z,402.25
2022-12-05T17:30:06.820Z,416.30
2022-12-05T17:32:40.567Z,484.77
2022-12-05T17:35:24.544Z,382.42
2022-12-05T17:37:54.906Z,353.63
2022-12-05T17:40:23.500Z,370.60
2022-12-05T17:42:52.001Z,357.75
2022-12-05T17:45:20.558Z,497.55
2022-12-05T17:47:49.753Z,509.33
2022-12-05T17:50:21.513Z,358.52
2022-12-05T17:52:50.263Z,402.60
2022-12-05T17:55:22.422Z,376.95
2022-12-05T17:57:51.219Z,345.05
2022-12-05T18:00:23.500Z,397.60
2022-12-05T18:03:04.015Z,550.85
2022-12-05T18:05:32.929Z,387.40
2022-12-05T18:08:01.877Z,399.08
2022-12-05T18:10:32.011Z,360.42
2022-12-05T18:13:00.567Z,421.27
2022-12-05T18:15:29.113Z,414.88
2022-12-05T18:17:58.085Z,369.75
2022-12-05T18:20:27.534Z,378.50
2022-12-05T18:22:56.043Z,400.92
2022-12-05T18:25:25.011Z,370.83
2022-12-05T18:27:54.990Z,403.75
2022-12-05T18:30:23.460Z,397.65
2022-12-05T18:32:51.938Z,428.50
2022-12-05T18:35:39.918Z,482.88
2022-12-05T18:38:08.864Z,422.00
2022-12-05T18:40:37.378Z,397.35
2022-12-05T18:43:07.265Z,476.40
2022-12-05T18:45:35.851Z,440.55
2022-12-05T18:48:23.195Z,386.08
2022-12-05T18:50:52.975Z,504.48
2022-12-05T18:53:21.917Z,432.63
2022-12-05T18:56:13.535Z,411.45
2022-12-05T18:58:40.827Z,405.55
2022-12-05T19:01:11.244Z,442.73
2022-12-05T19:03:40.741Z,381.98
2022-12-05T19:06:16.365Z,496.40
2022-12-05T19:08:45.626Z,445.27
2022-12-05T19:11:14.798Z,409.13
2022-12-05T19:13:44.947Z,378.80
2022-12-05T19:16:16.933Z,408.92
2022-12-05T19:18:45.578Z,395.70
2022-12-05T19:21:14.084Z,453.70
2022-12-05T19:23:42.492Z,376.58
2022-12-05T19:26:11.569Z,404.02
2022-12-05T19:28:40.196Z,385.63
2022-12-05T19:31:11.491Z,385.52
2022-12-05T19:33:41.355Z,372.83
2022-12-05T19:36:13.180Z,379.88
2022-12-05T19:38:52.610Z,384.02
2022-12-05T19:41:22.982Z,351.33
2022-12-05T19:43:51.726Z,340.02
2022-12-05T19:46:24.905Z,347.98
2022-12-05T19:48:54.343Z,483.95
2022-12-05T19:51:23.199Z,407.60
2022-12-05T19:53:51.939Z,346.85
2022-12-05T19:56:21.849Z,347.17
2022-12-05T19:58:52.093Z,338.65
2022-12-05T20:01:23.732Z,328.65
2022-12-05T20:03:54.112Z,330.95
2022-12-05T20:06:23.384Z,337.55
2022-12-05T20:08:52.821Z,345.23
2022-12-05T20:11:25.140Z,340.52
2022-12-05T20:13:54.853Z,351.08
2022-12-05T20:16:26.736Z,350.00
2022-12-05T20:18:58.046Z,338.15
2022-12-05T20:21:28.017Z,347.48
2022-12-05T20:23:57.065Z,348.23
2022-12-05T20:26:28.566Z,345.25
2022-12-05T20:28:58.679Z,343.98
2022-12-05T20:31:30.318Z,397.83
2022-12-05T20:33:58.916Z,330.15
2022-12-05T20:36:29.143Z,332.58
2022-12-05T20:39:01.700Z,339.67
2022-12-05T20:41:34.789Z,358.10
2022-12-05T20:44:05.341Z,349.90
2022-12-05T20:46:38.859Z,341.98
2022-12-05T20:49:07.986Z,331.75
2022-12-05T20:51:36.951Z,361.33
2022-12-05T20:54:07.551Z,362.20
2022-12-05T20:56:42.196Z,370.83
2022-12-05T20:59:13.077Z,381.63
2022-12-05T21:01:43.769Z,461.90
2022-12-05T21:04:13.613Z,366.10
2022-12-05T21:06:43.800Z,426.40
2022-12-05T21:09:15.944Z,364.38
2022-12-05T21:11:44.983Z,376.40
2022-12-05T21:14:13.841Z,349.55
2022-12-05T21:16:43.941Z,341.10
2022-12-05T21:19:12.495Z,402.15
2022-12-05T21:21:41.138Z,370.55
2022-12-05T21:24:10.552Z,385.15
2022-12-05T21:26:39.623Z,381.88
2022-12-05T21:29:10.596Z,382.10
2022-12-05T21:31:43.398Z,362.08
2022-12-05T21:34:15.310Z,391.17
2022-12-05T21:36:44.523Z,387.38
2022-12-05T21:39:13.205Z,371.88
2022-12-05T21:41:41.834Z,391.60
2022-12-05T21:44:10.510Z,394.38
2022-12-05T21:46:39.076Z,396.27
2022-12-05T21:49:09.115Z,361.65
2022-12-05T21:51:37.577Z,373.08
2022-12-05T21:54:06.354Z,385.13
2022-12-05T21:56:34.920Z,386.50
2022-12-05T21:59:03.536Z,370.63
2022-12-05T22:01:36.611Z,352.27
2022-12-05T22:04:05.320Z,380.08
2022-12-05T22:06:35.358Z,348.48
2022-12-05T22:09:03.920Z,371.92
2022-12-05T22:11:32.800Z,406.58
2022-12-05T22:14:01.248Z,410.15
2022-12-05T22:16:33.418Z,387.85
2022-12-05T22:19:02.448Z,363.02
2022-12-05T22:21:33.800Z,397.73
2022-12-05T22:24:03.528Z,393.23
2022-12-05T22:26:32.046Z,419.95
2022-12-05T22:29:00.555Z,387.85
2022-12-05T22:31:29.502Z,383.02
2022-12-05T22:33:57.967Z,373.48
2022-12-05T22:36:26.597Z,401.08
2022-12-05T22:38:55.164Z,378.88
2022-12-05T22:41:26.513Z,357.80
2022-12-05T22:43:57.591Z,379.23
2022-12-05T22:46:27.651Z,408.10
2022-12-05T22:48:56.515Z,406.88
2022-12-05T22:51:27.402Z,356.80
2022-12-05T22:53:56.359Z,367.00
2022-12-05T22:56:27.965Z,349.08
2022-12-05T22:58:57.033Z,403.00
2022-12-05T23:01:26.776Z,386.02
2022-12-05T23:03:57.104Z,369.25
2022-12-05T23:06:25.977Z,379.48
2022-12-05T23:08:54.692Z,357.60
2022-12-05T23:11:26.069Z,371.95
2022-12-05T23:14:01.324Z,378.77
2022-12-05T23:16:32.410Z,371.05
2022-12-05T23:19:03.002Z,380.13
2022-12-05T23:21:32.912Z,383.45
2022-12-05T23:24:03.039Z,387.63
2022-12-05T23:26:34.801Z,356.23
2022-12-05T23:29:03.383Z,380.92
2022-12-05T23:31:31.967Z,341.90
2022-12-05T23:34:03.443Z,388.52
2022-12-05T23:36:32.554Z,397.55
2022-12-05T23:39:01.242Z,409.95
2022-12-05T23:41:29.776Z,411.02
2022-12-05T23:43:59.744Z,388.63
2022-12-05T23:46:29.532Z,349.50
2022-12-05T23:48:58.325Z,403.50
2022-12-05T23:51:28.445Z,405.70
2022-12-05T23:53:58.624Z,369.15
2022-12-05T23:56:28.473Z,375.95
2022-12-05T23:58:59.320Z,411.33
